createdAt,value
2022-07-30T00:01:35.670Z,20.90
2022-07-30T00:04:03.851Z,20.80
2022-07-30T00:06:31.181Z,20.70
2022-07-30T00:08:58.818Z,20.60
2022-07-30T00:11:28.028Z,20.50
2022-07-30T00:13:55.595Z,20.50
2022-07-30T00:16:22.933Z,20.40
2022-07-30T00:18:49.977Z,20.30
2022-07-30T00:21:20.122Z,20.30
2022-07-30T00:24:02.531Z,20.20
2022-07-30T00:26:29.963Z,20.20
2022-07-30T00:28:56.982Z,20.20
2022-07-30T00:31:23.978Z,20.30
2022-07-30T00:33:50.948Z,20.30
2022-07-30T00:36:17.929Z,20.20
2022-07-30T00:38:45.674Z,20.10
2022-07-30T00:41:13.444Z,20.20
2022-07-30T00:43:43.974Z,20.20
2022-07-30T00:46:11.113Z,20.10
2022-07-30T00:48:38.229Z,20.20
2022-07-30T00:51:05.412Z,20.30
2022-07-30T00:53:32.661Z,20.30
2022-07-30T00:55:59.915Z,20.20
2022-07-30T00:58:27.721Z,20.10
2022-07-30T01:00:55.162Z,20.00
2022-07-30T01:03:22.300Z,19.90
2022-07-30T01:05:50.040Z,20.00
2022-07-30T01:08:17.064Z,19.90
2022-07-30T01:10:44.843Z,19.90
2022-07-30T01:13:12.813Z,19.90
2022-07-30T01:15:40.251Z,19.90
2022-07-30T01:18:11.300Z,20.00
2022-07-30T01:20:50.047Z,20.00
2022-07-30T01:23:30.395Z,20.00
2022-07-30T01:26:08.822Z,20.10
2022-07-30T01:28:38.726Z,20.00
2022-07-30T01:31:07.625Z,20.00
2022-07-30T01:33:40.494Z,20.00
2022-07-30T01:36:10.904Z,20.10
2022-07-30T01:38:41.458Z,19.90
2022-07-30T01:41:09.655Z,19.80
2022-07-30T01:43:38.593Z,19.90
2022-07-30T01:46:07.517Z,19.90
2022-07-30T01:48:40.703Z,20.00
2022-07-30T01:51:12.777Z,20.00
2022-07-30T01:53:44.499Z,19.90
2022-07-30T01:56:16.667Z,19.80
2022-07-30T01:58:46.811Z,19.80
2022-07-30T02:01:20.149Z,19.70
2022-07-30T02:03:47.527Z,19.70
2022-07-30T02:06:21.123Z,19.60
2022-07-30T02:08:58.942Z,19.40
2022-07-30T02:11:45.939Z,19.40
2022-07-30T02:14:26.345Z,19.30
2022-07-30T02:16:59.116Z,19.20
2022-07-30T02:19:41.773Z,19.30
2022-07-30T02:22:15.199Z,19.30
2022-07-30T02:24:43.890Z,19.10
2022-07-30T02:27:32.117Z,19.10
2022-07-30T02:30:01.491Z,19.10
2022-07-30T02:32:35.192Z,19.10
2022-07-30T02:35:10.404Z,19.10
2022-07-30T02:37:43.239Z,19.20
2022-07-30T02:40:17.989Z,19.30
2022-07-30T02:42:49.287Z,19.30
2022-07-30T02:45:21.295Z,19.30
2022-07-30T02:48:06.753Z,19.20
2022-07-30T02:50:34.898Z,19.30
2022-07-30T02:53:03.467Z,19.20
2022-07-30T02:55:33.384Z,19.20
2022-07-30T02:58:02.662Z,19.20
2022-07-30T03:00:30.910Z,19.20
2022-07-30T03:02:59.231Z,19.20
2022-07-30T03:05:29.707Z,19.20
2022-07-30T03:07:59.676Z,19.00
2022-07-30T03:10:27.866Z,19.10
2022-07-30T03:12:56.260Z,19.20
2022-07-30T03:15:23.458Z,19.20
2022-07-30T03:17:53.788Z,19.10
2022-07-30T03:20:30.852Z,19.20
2022-07-30T03:23:00.722Z,19.30
2022-07-30T03:25:30.795Z,19.40
2022-07-30T03:28:01.268Z,19.50
2022-07-30T03:30:29.326Z,19.40
2022-07-30T03:32:57.490Z,19.20
2022-07-30T03:35:25.087Z,19.10
2022-07-30T03:37:55.565Z,19.00
2022-07-30T03:40:23.613Z,19.00
2022-07-30T03:42:51.412Z,19.10
2022-07-30T03:45:22.571Z,18.90
2022-07-30T03:47:51.672Z,18.90
2022-07-30T03:50:18.781Z,19.00
2022-07-30T03:52:48.299Z,19.00
2022-07-30T03:55:17.661Z,19.00
2022-07-30T03:57:51.193Z,18.90
2022-07-30T04:00:24.089Z,19.00
2022-07-30T04:02:52.747Z,19.00
2022-07-30T04:05:41.129Z,19.10
2022-07-30T04:08:12.643Z,19.20
2022-07-30T04:10:41.397Z,19.30
2022-07-30T04:13:28.115Z,19.40
2022-07-30T04:16:49.176Z,19.20
2022-07-30T04:19:25.435Z,19.20
2022-07-30T04:21:55.529Z,19.20
2022-07-30T04:24:23.720Z,19.10
2022-07-30T04:26:52.852Z,19.10
2022-07-30T04:29:24.475Z,19.10
2022-07-30T04:31:54.752Z,19.10
2022-07-30T04:34:34.058Z,19.20
2022-07-30T04:37:02.860Z,19.10
2022-07-30T04:39:30.317Z,19.10
2022-07-30T04:41:57.333Z,19.10
2022-07-30T04:44:34.327Z,19.10
2022-07-30T04:47:24.694Z,19.00
2022-07-30T04:50:11.767Z,19.10
2022-07-30T04:52:39.713Z,19.20
2022-07-30T04:55:09.981Z,19.10
2022-07-30T04:57:40.283Z,19.10
2022-07-30T05:00:08.644Z,19.20
2022-07-30T05:02:41.316Z,19.20
2022-07-30T05:05:11.632Z,19.30
2022-07-30T05:07:39.578Z,19.20
2022-07-30T05:10:09.120Z,19.30
2022-07-30T05:12:40.071Z,19.30
2022-07-30T05:15:08.689Z,19.20
2022-07-30T05:17:36.844Z,19.30
2022-07-30T05:20:07.015Z,19.40
2022-07-30T05:22:52.360Z,19.20
2022-07-30T05:25:21.798Z,19.20
2022-07-30T05:27:52.706Z,19.30
2022-07-30T05:30:26.172Z,19.20
2022-07-30T05:32:57.513Z,19.30
2022-07-30T05:35:25.498Z,19.40
2022-07-30T05:37:53.740Z,19.40
2022-07-30T05:40:20.893Z,19.30
2022-07-30T05:43:16.527Z,19.40
2022-07-30T05:45:43.598Z,19.50
2022-07-30T05:48:10.703Z,19.40
2022-07-30T05:50:37.719Z,19.50
2022-07-30T05:53:05.823Z,19.50
2022-07-30T05:55:53.273Z,19.60
2022-07-30T05:58:39.150Z,19.70
2022-07-30T06:01:06.452Z,19.70
2022-07-30T06:03:34.900Z,19.70
2022-07-30T06:06:23.294Z,19.70
2022-07-30T06:08:51.294Z,19.80
2022-07-30T06:11:18.443Z,19.90
2022-07-30T06:13:45.830Z,19.90
2022-07-30T06:16:13.404Z,20.00
2022-07-30T06:18:40.464Z,20.00
2022-07-30T06:21:15.153Z,20.10
2022-07-30T06:23:57.625Z,20.10
2022-07-30T06:26:36.521Z,20.20
2022-07-30T06:29:04.549Z,20.40
2022-07-30T06:31:32.891Z,20.30
2022-07-30T06:34:00.467Z,20.40
2022-07-30T06:36:32.970Z,20.60
2022-07-30T06:39:03.130Z,20.60
2022-07-30T06:41:44.390Z,20.70
2022-07-30T06:44:14.154Z,20.70
2022-07-30T06:47:06.965Z,20.60
2022-07-30T06:49:37.423Z,20.50
2022-07-30T06:52:06.302Z,20.60
2022-07-30T06:54:33.954Z,20.70
2022-07-30T06:57:16.461Z,20.80
2022-07-30T06:59:56.250Z,20.70
2022-07-30T07:02:42.712Z,20.90
2022-07-30T07:05:14.285Z,21.00
2022-07-30T07:07:57.820Z,20.90
2022-07-30T07:10:28.496Z,20.70
2022-07-30T07:13:16.018Z,20.60
2022-07-30T07:15:43.527Z,20.50
2022-07-30T07:18:15.416Z,20.60
2022-07-30T07:20:49.716Z,20.60
2022-07-30T07:23:19.731Z,20.60
2022-07-30T07:25:49.388Z,20.50
2022-07-30T07:28:16.926Z,20.60
2022-07-30T07:30:44.925Z,20.30
2022-07-30T07:33:13.460Z,20.30
2022-07-30T07:35:48.769Z,20.30
2022-07-30T07:38:29.859Z,20.20
2022-07-30T07:40:58.063Z,20.20
2022-07-30T07:43:25.377Z,20.20
2022-07-30T07:45:55.369Z,20.00
2022-07-30T07:48:24.821Z,19.90
2022-07-30T07:51:17.783Z,19.90
2022-07-30T07:54:21.036Z,19.70
2022-07-30T07:56:51.671Z,19.90
2022-07-30T07:59:27.740Z,19.90
2022-07-30T08:02:09.221Z,20.10
2022-07-30T08:04:42.242Z,20.10
2022-07-30T08:07:09.263Z,20.00
2022-07-30T08:09:54.842Z,20.00
2022-07-30T08:12:33.210Z,20.00
2022-07-30T08:15:00.293Z,20.20
2022-07-30T08:17:32.892Z,20.00
2022-07-30T08:20:12.457Z,20.00
2022-07-30T08:22:39.787Z,20.10
2022-07-30T08:25:07.375Z,20.10
2022-07-30T08:27:34.568Z,20.00
2022-07-30T08:30:09.393Z,20.10
2022-07-30T08:32:37.700Z,20.10
2022-07-30T08:35:06.420Z,20.00
2022-07-30T08:37:34.484Z,19.80
2022-07-30T08:40:02.867Z,19.60
2022-07-30T08:42:31.181Z,19.60
2022-07-30T08:44:58.331Z,19.70
2022-07-30T08:47:33.795Z,20.00
2022-07-30T08:50:18.225Z,20.20
2022-07-30T08:53:03.950Z,20.00
2022-07-30T08:55:32.078Z,19.80
2022-07-30T08:58:00.393Z,20.20
2022-07-30T09:00:28.476Z,19.90
2022-07-30T09:02:57.249Z,20.00
2022-07-30T09:05:25.088Z,20.20
2022-07-30T09:07:52.178Z,20.20
2022-07-30T09:10:23.864Z,19.80
2022-07-30T09:12:51.501Z,19.60
2022-07-30T09:15:21.266Z,19.40
2022-07-30T09:17:56.358Z,19.40
2022-07-30T09:20:33.657Z,19.30
2022-07-30T09:23:06.133Z,19.50
2022-07-30T09:25:52.187Z,19.50
2022-07-30T09:28:37.929Z,19.60
2022-07-30T09:34:33.604Z,19.80
2022-07-30T09:37:25.368Z,20.00
2022-07-30T09:40:18.670Z,19.90
2022-07-30T09:43:18.094Z,19.60
2022-07-30T09:45:58.217Z,19.20
2022-07-30T09:48:27.355Z,19.40
2022-07-30T09:50:57.320Z,19.40
2022-07-30T09:53:25.376Z,19.30
2022-07-30T09:55:52.729Z,19.30
2022-07-30T09:58:27.019Z,19.50
2022-07-30T10:00:59.686Z,19.10
2022-07-30T10:04:03.138Z,19.10
2022-07-30T10:07:01.824Z,19.00
2022-07-30T10:09:45.331Z,19.00
2022-07-30T10:12:15.955Z,19.00
2022-07-30T10:14:49.513Z,18.80
2022-07-30T10:17:22.117Z,18.90
2022-07-30T10:20:18.305Z,19.00
2022-07-30T10:23:09.404Z,19.10
2022-07-30T10:25:49.546Z,19.40
2022-07-30T10:28:39.400Z,19.60
2022-07-30T10:31:08.443Z,19.50
2022-07-30T10:33:54.367Z,19.50
2022-07-30T10:36:23.893Z,19.50
2022-07-30T10:38:53.060Z,19.70
2022-07-30T10:41:42.501Z,19.60
2022-07-30T10:44:25.374Z,19.90
2022-07-30T10:47:07.135Z,20.40
2022-07-30T10:49:41.356Z,20.50
2022-07-30T10:52:10.756Z,20.50
2022-07-30T10:54:42.890Z,20.50
2022-07-30T10:57:22.676Z,20.30
2022-07-30T11:00:03.805Z,20.50
2022-07-30T11:02:35.472Z,20.20
2022-07-30T11:05:18.728Z,20.40
2022-07-30T11:08:31.736Z,20.60
2022-07-30T11:10:59.344Z,20.50
2022-07-30T11:13:49.558Z,20.30
2022-07-30T11:16:18.013Z,20.40
2022-07-30T11:19:56.394Z,20.50
2022-07-30T11:22:21.965Z,20.90
2022-07-30T11:24:49.883Z,21.00
2022-07-30T11:27:50.430Z,20.90
2022-07-30T11:30:18.163Z,21.30
2022-07-30T11:32:50.385Z,21.60
2022-07-30T11:35:23.618Z,22.30
2022-07-30T11:38:15.599Z,22.20
2022-07-30T11:40:49.232Z,22.40
2022-07-30T11:43:35.838Z,22.50
2022-07-30T11:46:16.339Z,23.20
2022-07-30T11:49:09.503Z,23.10
2022-07-30T11:51:44.846Z,23.60
2022-07-30T11:54:12.655Z,23.90
2022-07-30T11:57:04.319Z,24.40
2022-07-30T11:59:31.762Z,24.50
2022-07-30T12:02:01.924Z,25.30
2022-07-30T12:04:30.823Z,25.60
2022-07-30T12:06:57.954Z,25.50
2022-07-30T12:09:29.713Z,25.20
2022-07-30T12:11:57.658Z,25.20
2022-07-30T12:14:25.173Z,25.30
2022-07-30T12:16:54.592Z,24.70
2022-07-30T12:19:21.783Z,24.40
2022-07-30T12:21:53.034Z,24.40
2022-07-30T12:24:26.688Z,24.30
2022-07-30T12:27:07.451Z,24.80
2022-07-30T12:29:35.746Z,24.70
2022-07-30T12:32:03.310Z,24.30
2022-07-30T12:34:30.389Z,24.30
2022-07-30T12:37:08.108Z,24.10
2022-07-30T12:39:35.141Z,24.70
2022-07-30T12:42:03.473Z,25.60
2022-07-30T12:44:46.570Z,25.70
2022-07-30T12:47:27.968Z,25.50
2022-07-30T12:49:57.328Z,25.30
2022-07-30T12:52:30.967Z,25.30
2022-07-30T12:55:10.490Z,25.50
2022-07-30T12:58:07.163Z,25.20
2022-07-30T13:00:44.310Z,25.60
2022-07-30T13:03:24.927Z,25.70
2022-07-30T13:05:55.542Z,25.80
2022-07-30T13:08:56.009Z,25.60
2022-07-30T13:11:25.039Z,25.80
2022-07-30T13:13:52.636Z,25.50
2022-07-30T13:16:20.914Z,25.70
2022-07-30T13:18:48.067Z,25.10
2022-07-30T13:21:15.073Z,25.30
2022-07-30T13:23:42.448Z,25.50
2022-07-30T13:26:10.915Z,25.60
2022-07-30T13:28:38.351Z,25.40
2022-07-30T13:31:05.599Z,24.90
2022-07-30T13:33:32.661Z,24.50
2022-07-30T13:35:59.706Z,24.40
2022-07-30T13:38:27.757Z,24.50
2022-07-30T13:40:59.075Z,24.50
2022-07-30T13:43:28.926Z,24.20
2022-07-30T13:46:00.162Z,24.30
2022-07-30T13:48:27.306Z,24.10
2022-07-30T13:50:54.392Z,23.80
2022-07-30T13:53:21.578Z,24.00
2022-07-30T13:55:48.698Z,23.80
2022-07-30T13:58:15.727Z,24.10
2022-07-30T14:00:45.120Z,24.30
2022-07-30T14:03:12.718Z,23.80
2022-07-30T14:05:42.218Z,23.70
2022-07-30T14:08:11.097Z,23.70
2022-07-30T14:10:39.772Z,23.90
2022-07-30T14:13:07.929Z,24.20
2022-07-30T14:15:34.999Z,24.20
2022-07-30T14:18:02.275Z,24.60
2022-07-30T14:20:29.671Z,24.70
2022-07-30T14:22:57.360Z,24.70
2022-07-30T14:25:24.906Z,25.10
2022-07-30T14:27:52.298Z,26.20
2022-07-30T14:30:19.795Z,27.40
2022-07-30T14:32:46.934Z,27.90
2022-07-30T14:35:14.126Z,27.30
2022-07-30T14:37:41.618Z,26.50
2022-07-30T14:40:11.553Z,26.60
2022-07-30T14:42:40.120Z,26.50
2022-07-30T14:45:10.880Z,26.30
2022-07-30T14:47:39.289Z,26.30
2022-07-30T14:50:09.514Z,26.30
2022-07-30T14:52:38.767Z,25.90
2022-07-30T14:55:09.694Z,25.50
2022-07-30T14:57:37.320Z,25.60
2022-07-30T15:00:07.890Z,25.50
2022-07-30T15:02:35.294Z,25.60
2022-07-30T15:05:02.308Z,25.70
2022-07-30T15:07:29.588Z,25.10
2022-07-30T15:09:59.612Z,25.40
2022-07-30T15:12:27.379Z,25.30
2022-07-30T15:14:54.556Z,25.60
2022-07-30T15:17:22.668Z,26.40
2022-07-30T15:19:50.790Z,27.10
2022-07-30T15:22:20.006Z,27.30
2022-07-30T15:24:47.019Z,27.20
2022-07-30T15:27:13.976Z,26.70
2022-07-30T15:29:41.030Z,26.50
2022-07-30T15:32:08.076Z,26.10
2022-07-30T15:34:35.750Z,26.10
2022-07-30T15:37:03.942Z,26.10
2022-07-30T15:39:33.617Z,26.00
2022-07-30T15:42:06.106Z,26.10
2022-07-30T15:44:34.070Z,25.90
2022-07-30T15:47:01.620Z,25.60
2022-07-30T15:49:29.001Z,25.50
2022-07-30T15:51:58.364Z,25.40
2022-07-30T15:54:25.589Z,25.30
2022-07-30T15:57:01.354Z,25.30
2022-07-30T15:59:29.222Z,25.40
2022-07-30T16:01:56.533Z,25.30
2022-07-30T16:04:31.210Z,25.50
2022-07-30T16:07:03.378Z,25.70
2022-07-30T16:09:30.726Z,25.70
2022-07-30T16:11:58.678Z,25.70
2022-07-30T16:14:26.676Z,25.40
2022-07-30T16:16:53.706Z,27.50
2022-07-30T16:19:20.699Z,30.40
2022-07-30T16:21:51.008Z,32.30
2022-07-30T16:24:18.322Z,33.90
2022-07-30T16:26:45.322Z,34.40
2022-07-30T16:29:13.966Z,34.20
2022-07-30T16:31:41.484Z,32.40
2022-07-30T16:34:08.544Z,30.40
2022-07-30T16:36:35.596Z,29.30
2022-07-30T16:39:02.781Z,28.20
2022-07-30T16:41:29.771Z,27.40
2022-07-30T16:43:56.907Z,27.00
2022-07-30T16:46:24.627Z,26.50
2022-07-30T16:48:51.705Z,25.90
2022-07-30T16:51:22.734Z,25.60
2022-07-30T16:53:49.782Z,25.40
2022-07-30T16:56:17.282Z,25.10
2022-07-30T16:58:44.247Z,24.80
2022-07-30T17:01:11.479Z,24.50
2022-07-30T17:03:38.581Z,24.30
2022-07-30T17:06:05.680Z,24.20
2022-07-30T17:08:33.007Z,24.20
2022-07-30T17:11:00.513Z,24.20
2022-07-30T17:13:27.501Z,24.10
2022-07-30T17:15:54.547Z,25.00
2022-07-30T17:18:21.555Z,25.30
2022-07-30T17:20:48.547Z,25.40
2022-07-30T17:23:15.698Z,26.70
2022-07-30T17:25:42.753Z,27.50
2022-07-30T17:28:09.820Z,28.20
2022-07-30T17:30:36.934Z,29.20
2022-07-30T17:33:06.343Z,29.40
2022-07-30T17:35:34.058Z,30.30
2022-07-30T17:38:01.304Z,30.20
2022-07-30T17:40:31.656Z,29.90
2022-07-30T17:43:07.495Z,28.60
2022-07-30T17:45:36.021Z,28.00
2022-07-30T17:48:04.210Z,26.70
2022-07-30T17:50:32.492Z,25.70
2022-07-30T17:53:00.141Z,24.90
2022-07-30T17:55:31.145Z,24.10
2022-07-30T17:57:58.175Z,23.40
2022-07-30T18:00:25.213Z,22.50
2022-07-30T18:02:52.194Z,22.40
2022-07-30T18:05:19.251Z,22.10
2022-07-30T18:07:46.232Z,22.00
2022-07-30T18:10:13.411Z,21.60
2022-07-30T18:12:48.625Z,21.30
2022-07-30T18:15:17.214Z,21.10
2022-07-30T18:17:44.338Z,21.00
2022-07-30T18:20:11.839Z,21.00
2022-07-30T18:22:38.931Z,21.00
2022-07-30T18:25:08.273Z,20.80
2022-07-30T18:27:45.730Z,20.50
2022-07-30T18:30:12.989Z,20.40
2022-07-30T18:32:40.063Z,20.40
2022-07-30T18:35:14.879Z,20.40
2022-07-30T18:37:43.793Z,20.30
2022-07-30T18:40:13.409Z,20.10
2022-07-30T18:42:40.487Z,20.10
2022-07-30T18:45:08.014Z,20.00
2022-07-30T18:47:35.142Z,20.00
2022-07-30T18:50:02.594Z,19.90
2022-07-30T18:52:29.642Z,19.90
2022-07-30T18:54:56.625Z,19.60
2022-07-30T18:57:25.755Z,19.60
2022-07-30T18:59:53.046Z,19.50
2022-07-30T19:02:20.285Z,19.40
2022-07-30T19:04:47.371Z,19.30
2022-07-30T19:07:14.439Z,19.30
2022-07-30T19:09:42.972Z,19.30
2022-07-30T19:12:10.059Z,19.30
2022-07-30T19:14:37.263Z,19.20
2022-07-30T19:17:13.598Z,19.20
2022-07-30T19:19:41.432Z,19.10
2022-07-30T19:22:08.506Z,19.10
2022-07-30T19:24:35.564Z,19.00
2022-07-30T19:27:02.725Z,19.00
2022-07-30T19:29:29.800Z,19.00
2022-07-30T19:31:56.820Z,19.00
2022-07-30T19:34:23.961Z,18.90
2022-07-30T19:36:51.043Z,18.90
2022-07-30T19:39:21.140Z,18.80
2022-07-30T19:41:50.868Z,18.70
2022-07-30T19:44:29.447Z,18.70
2022-07-30T19:46:58.464Z,18.60
2022-07-30T19:49:29.710Z,18.60
2022-07-30T19:52:10.565Z,18.60
2022-07-30T19:54:44.570Z,18.60
2022-07-30T19:57:11.629Z,18.60
2022-07-30T19:59:45.281Z,18.60
2022-07-30T20:02:25.942Z,18.60
2022-07-30T20:04:54.142Z,18.60
2022-07-30T20:07:21.714Z,18.50
2022-07-30T20:09:48.770Z,18.50
2022-07-30T20:12:16.327Z,18.50
2022-07-30T20:14:44.209Z,18.50
2022-07-30T20:17:11.626Z,18.60
2022-07-30T20:19:39.288Z,18.40
2022-07-30T20:22:15.552Z,18.40
2022-07-30T20:24:42.608Z,18.40
2022-07-30T20:27:10.095Z,18.40
2022-07-30T20:29:56.831Z,18.40
2022-07-30T20:32:24.727Z,18.40
2022-07-30T20:34:52.285Z,18.40
2022-07-30T20:37:22.485Z,18.40
2022-07-30T20:39:50.085Z,18.40
2022-07-30T20:42:17.097Z,18.30
2022-07-30T20:44:50.560Z,18.30
2022-07-30T20:47:33.405Z,18.20
2022-07-30T20:50:01.988Z,18.20
2022-07-30T20:52:29.010Z,18.20
2022-07-30T20:54:56.501Z,18.20
2022-07-30T20:57:57.214Z,18.20
2022-07-30T21:00:11.574Z,18.10
2022-07-30T21:02:39.537Z,18.10
2022-07-30T21:05:06.934Z,18.00
2022-07-30T21:07:36.494Z,17.90
2022-07-30T21:10:21.656Z,17.80
2022-07-30T21:12:53.091Z,17.80
2022-07-30T21:15:26.348Z,17.70
2022-07-30T21:17:54.479Z,17.70
2022-07-30T21:20:27.725Z,17.70
2022-07-30T21:22:56.285Z,17.60
2022-07-30T21:25:32.660Z,17.60
2022-07-30T21:28:11.301Z,17.60
2022-07-30T21:30:54.369Z,17.60
2022-07-30T21:33:31.138Z,17.60
2022-07-30T21:35:59.389Z,17.60
2022-07-30T21:38:30.420Z,17.50
2022-07-30T21:40:58.055Z,17.50
2022-07-30T21:43:29.945Z,17.50
2022-07-30T21:45:58.780Z,17.60
2022-07-30T21:48:26.669Z,17.50
2022-07-30T21:50:55.032Z,17.50
2022-07-30T21:53:29.398Z,17.50
2022-07-30T21:56:10.247Z,17.60
2022-07-30T21:58:39.104Z,17.60
2022-07-30T22:01:17.760Z,17.60
2022-07-30T22:04:01.109Z,17.50
2022-07-30T22:06:41.981Z,17.60
2022-07-30T22:09:19.032Z,17.50
2022-07-30T22:12:01.036Z,17.50
2022-07-30T22:14:29.280Z,17.40
2022-07-30T22:16:57.054Z,17.40
2022-07-30T22:19:25.836Z,17.40
2022-07-30T22:21:53.276Z,17.40
2022-07-30T22:24:29.943Z,17.40
2022-07-30T22:27:10.800Z,17.40
2022-07-30T22:29:43.047Z,17.40
2022-07-30T22:32:11.220Z,17.30
2022-07-30T22:34:38.334Z,17.30
2022-07-30T22:37:09.171Z,17.30
2022-07-30T22:39:51.701Z,17.30
2022-07-30T22:42:20.962Z,17.20
2022-07-30T22:44:52.133Z,17.20
2022-07-30T22:47:21.828Z,17.20
2022-07-30T22:50:06.774Z,17.20
2022-07-30T22:52:49.056Z,17.20
2022-07-30T22:55:21.956Z,17.20
2022-07-30T22:57:49.908Z,17.20
2022-07-30T23:00:27.225Z,17.20
2022-07-30T23:02:56.705Z,17.20
2022-07-30T23:05:24.215Z,17.20
2022-07-30T23:07:51.476Z,17.20
2022-07-30T23:10:20.653Z,17.20
2022-07-30T23:12:53.630Z,17.10
2022-07-30T23:15:21.477Z,17.20
2022-07-30T23:17:48.479Z,17.10
2022-07-30T23:20:20.384Z,17.10
2022-07-30T23:22:47.870Z,17.10
2022-07-30T23:25:15.145Z,17.00
2022-07-30T23:27:42.517Z,17.00
2022-07-30T23:30:11.094Z,17.10
2022-07-30T23:32:39.895Z,17.00
2022-07-30T23:35:08.849Z,17.00
2022-07-30T23:37:38.124Z,17.00
2022-07-30T23:40:17.469Z,17.00
2022-07-30T23:42:44.523Z,17.00
2022-07-30T23:45:11.624Z,17.00
2022-07-30T23:47:54.548Z,16.90
2022-07-30T23:50:25.879Z,16.90
2022-07-30T23:52:52.961Z,17.00
2022-07-30T23:55:20.122Z,16.90
2022-07-30T23:57:47.661Z,16.90
